createdAt,value
2023-01-22T00:05:13.619Z,81.14
2023-01-22T00:11:36.565Z,81.24
2023-01-22T00:17:56.609Z,81.21
2023-01-22T00:24:19.557Z,81.02
2023-01-22T00:30:39.575Z,81.7
2023-01-22T00:37:02.621Z,82.65
2023-01-22T00:43:22.631Z,83.22
2023-01-22T00:49:45.562Z,83.82
2023-01-22T00:56:05.661Z,84.33
2023-01-22T01:02:28.683Z,84.21
2023-01-22T01:08:48.607Z,84
2023-01-22T01:15:11.723Z,83.66
2023-01-22T01:21:31.594Z,83.74
2023-01-22T01:27:54.559Z,83.71
2023-01-22T01:34:14.740Z,83.37
2023-01-22T01:40:37.564Z,83.33
2023-01-22T01:46:57.776Z,82.84
2023-01-22T01:53:20.726Z,82.74
2023-01-22T01:59:40.615Z,82.74
2023-01-22T02:06:03.598Z,82.26
2023-01-22T02:12:23.748Z,82.16
2023-01-22T02:18:46.682Z,81.77
2023-01-22T02:25:06.602Z,81.71
2023-01-22T02:31:29.849Z,81.64
2023-01-22T02:37:49.640Z,81.7
2023-01-22T02:44:12.656Z,81.33
2023-01-22T02:50:32.716Z,81.23
2023-01-22T02:56:55.625Z,81.32
2023-01-22T03:03:15.666Z,81.42
2023-01-22T03:09:38.682Z,81.28
2023-01-22T03:15:58.612Z,80.98
2023-01-22T03:22:21.676Z,80.53
2023-01-22T03:28:41.702Z,80.67
2023-01-22T03:35:04.584Z,80.98
2023-01-22T03:41:24.601Z,81.51
2023-01-22T03:47:47.779Z,80.94
2023-01-22T03:54:07.642Z,80.43
2023-01-22T04:00:30.587Z,80.15
2023-01-22T04:06:50.701Z,80
2023-01-22T04:23:01.678Z,80.78
2023-01-22T04:29:21.588Z,80.64
2023-01-22T04:35:44.617Z,80.88
2023-01-22T04:42:04.687Z,80.27
2023-01-22T04:48:27.688Z,80
2023-01-22T04:54:47.697Z,79.97
2023-01-22T05:01:10.753Z,80.03
2023-01-22T05:07:30.567Z,79.83
2023-01-22T05:13:53.706Z,79.96
2023-01-22T05:20:13.777Z,80.04
2023-01-22T05:26:36.629Z,80.15
2023-01-22T05:32:56.621Z,79.96
2023-01-22T05:39:20.358Z,80.11
2023-01-22T05:45:39.587Z,80.27
2023-01-22T05:52:02.578Z,80.17
2023-01-22T05:58:22.738Z,80.31
2023-01-22T06:04:45.632Z,80.19
2023-01-22T06:11:05.576Z,80.29
2023-01-22T06:17:28.729Z,80.2
2023-01-22T06:23:48.599Z,80.49
2023-01-22T06:30:11.583Z,80.27
2023-01-22T06:36:31.748Z,79.98
2023-01-22T06:42:54.607Z,80.14
2023-01-22T06:49:14.605Z,80.48
2023-01-22T06:55:37.713Z,79.92
2023-01-22T07:01:57.711Z,80.37
2023-01-22T07:08:20.687Z,79.75
2023-01-22T07:14:40.732Z,79.57
2023-01-22T07:21:03.632Z,79.96
2023-01-22T07:27:23.670Z,80.31
2023-01-22T07:33:46.692Z,80.19
2023-01-22T07:40:06.656Z,79.8
2023-01-22T07:46:29.807Z,79.4
2023-01-22T07:52:49.733Z,79.57
2023-01-22T07:59:12.742Z,79.61
2023-01-22T08:05:32.643Z,79.72
2023-01-22T08:11:56.265Z,79.56
2023-01-22T08:18:18.799Z,79.75
2023-01-22T08:24:39.570Z,80.03
2023-01-22T08:31:00.125Z,79.79
2023-01-22T08:37:22.684Z,79.96
2023-01-22T08:43:42.684Z,79.52
2023-01-22T08:50:05.697Z,79.69
2023-01-22T08:56:25.674Z,79.9
2023-01-22T09:02:48.647Z,80.31
2023-01-22T09:18:55.704Z,80.96
2023-01-22T09:25:15.579Z,81.08
2023-01-22T09:31:38.859Z,81.14
2023-01-22T09:38:04.577Z,80.91
2023-01-22T09:44:21.879Z,80.83
2023-01-22T09:50:41.644Z,80.4
2023-01-22T09:57:04.626Z,80.36
2023-01-22T10:03:24.718Z,80.65
2023-01-22T10:09:47.580Z,80.54
2023-01-22T10:16:07.561Z,80.62
2023-01-22T10:22:30.877Z,80.17
2023-01-22T10:28:50.693Z,79.83
2023-01-22T10:35:13.578Z,79.42
2023-01-22T10:41:33.740Z,79.57
2023-01-22T10:47:56.570Z,79.23
2023-01-22T10:54:16.694Z,79.17
2023-01-22T11:00:51.723Z,79.57
2023-01-22T11:06:59.962Z,79.79
2023-01-22T11:13:22.569Z,79.29
2023-01-22T11:19:44.608Z,79.17
2023-01-22T11:26:05.755Z,79.78
2023-01-22T11:32:25.600Z,79.53
2023-01-22T11:38:48.573Z,80.53
2023-01-22T11:45:08.683Z,80.34
2023-01-22T11:51:31.618Z,80.6
2023-01-22T11:57:51.748Z,80.89
2023-01-22T12:04:14.805Z,81.33
2023-01-22T12:10:34.606Z,81.36
2023-01-22T12:16:57.739Z,81.56
2023-01-22T12:23:17.692Z,81.65
2023-01-22T12:29:40.638Z,81.22
2023-01-22T12:36:00.795Z,81.08
2023-01-22T12:42:23.714Z,80.78
2023-01-22T12:48:43.584Z,80.5
2023-01-22T12:55:06.557Z,80.16
2023-01-22T13:01:26.754Z,80.28
2023-01-22T13:07:49.655Z,79.94
2023-01-22T13:14:14.990Z,79.21
2023-01-22T13:20:32.723Z,78.3
2023-01-22T13:26:52.601Z,78.33
2023-01-22T13:33:15.743Z,78.12
2023-01-22T13:39:35.706Z,78
2023-01-22T13:45:58.719Z,78.07
2023-01-22T13:52:18.656Z,78.1
2023-01-22T14:07:52.669Z,77.76
2023-01-22T14:14:12.608Z,77.59
2023-01-22T14:20:35.599Z,78.24
2023-01-22T14:26:55.757Z,78.38
2023-01-22T14:33:18.782Z,78.27
2023-01-22T14:39:38.728Z,78.13
2023-01-22T14:46:01.756Z,78.22
2023-01-22T14:52:21.579Z,78.65
2023-01-22T14:58:44.943Z,78.71
2023-01-22T15:05:04.749Z,79
2023-01-22T15:11:27.616Z,78.89
2023-01-22T15:17:47.591Z,79.1
2023-01-22T15:24:10.762Z,79.39
2023-01-22T15:30:30.653Z,79.07
2023-01-22T15:36:53.796Z,79.01
2023-01-22T15:43:13.792Z,79.22
2023-01-22T15:49:36.599Z,79.56
2023-01-22T15:55:56.663Z,79.59
2023-01-22T16:02:19.741Z,79.67
2023-01-22T16:08:39.567Z,80.41
2023-01-22T16:15:02.689Z,80.21
2023-01-22T16:21:22.713Z,80.41
2023-01-22T16:27:45.639Z,80.63
2023-01-22T16:34:05.610Z,80.55
2023-01-22T16:40:28.772Z,80.65
2023-01-22T16:46:48.713Z,81.02
2023-01-22T16:53:11.582Z,80.95
2023-01-22T16:59:31.723Z,81.08
2023-01-22T17:05:54.746Z,81.14
2023-01-22T17:12:14.644Z,81.52
2023-01-22T17:18:37.752Z,81.64
2023-01-22T17:24:57.588Z,81.5
2023-01-22T17:31:20.740Z,81.63
2023-01-22T17:37:40.724Z,81.83
2023-01-22T17:44:03.588Z,82.19
2023-01-22T17:50:23.638Z,82.34
2023-01-22T17:56:46.729Z,82.32
2023-01-22T18:03:06.605Z,82.49
2023-01-22T18:09:29.694Z,82.42
2023-01-22T18:15:49.850Z,82.73
2023-01-22T18:22:12.673Z,82.58
2023-01-22T18:28:32.608Z,82.94
2023-01-22T18:34:55.690Z,83.03
2023-01-22T18:41:15.690Z,82.92
2023-01-22T19:04:57.678Z,82.88
2023-01-22T19:11:20.574Z,83.06
2023-01-22T19:17:40.584Z,83.25
2023-01-22T19:24:03.728Z,83.11
2023-01-22T19:30:23.567Z,83.15
2023-01-22T19:36:46.583Z,83.11
2023-01-22T19:43:06.745Z,83.23
2023-01-22T19:49:29.606Z,83.29
2023-01-22T19:55:49.646Z,83.6
2023-01-22T20:02:12.744Z,83.82
2023-01-22T20:08:32.640Z,84.04
2023-01-22T20:14:55.628Z,83.98
2023-01-22T20:21:15.685Z,84.1
2023-01-22T20:27:38.633Z,83.93
2023-01-22T20:33:58.676Z,83.89
2023-01-22T20:40:21.733Z,83.9
2023-01-22T20:46:41.612Z,83.89
2023-01-22T20:53:04.613Z,84.12
2023-01-22T20:59:25.052Z,83.99
2023-01-22T21:05:47.593Z,84.17
2023-01-22T21:12:07.680Z,83.95
2023-01-22T21:18:30.708Z,83.85
2023-01-22T21:24:50.583Z,83.77
2023-01-22T21:31:13.690Z,83.26
2023-01-22T21:37:33.763Z,83.87
2023-01-22T21:43:56.602Z,84.08
2023-01-22T21:50:16.843Z,83.64
2023-01-22T21:56:39.738Z,83.67
2023-01-22T22:02:59.637Z,83.64
2023-01-22T22:09:22.594Z,83.72
2023-01-22T22:15:42.714Z,83.66
2023-01-22T22:22:05.586Z,84.05
2023-01-22T22:28:25.574Z,83.91
2023-01-22T22:34:48.716Z,84.11
2023-01-22T22:41:08.562Z,84
2023-01-22T22:47:31.628Z,84.36
2023-01-22T22:53:51.761Z,83.55
2023-01-22T23:00:14.628Z,83.77
2023-01-22T23:23:11.689Z,84.41
2023-01-22T23:29:31.625Z,84.57
2023-01-22T23:35:56.876Z,84.31
2023-01-22T23:42:14.747Z,84.39
2023-01-22T23:48:37.642Z,84.69
2023-01-22T23:54:57.576Z,84.44
